Time;durP1;ratioP1;P1;durP2;ratioP2;P2;SDS_P1;SDS_P2;PMS_P1;PMS_P2;Temp;Humidity;BMP_temperature;BMP_pressure;BME280_temperature;BME280_humidity;BME280_pressure;Samples;Min_cycle;Max_cycle;Signal;HPM_P1;HPM_P2
2021/01/10 00:02:09;;;;;;;19.73;8.63;;;-2.30;99.90;;;;;;5076093;28;20054;-83
2021/01/10 00:04:34;;;;;;;20.73;8.17;;;-2.40;99.90;;;;;;5076142;28;20028;-84
2021/01/10 00:07:00;;;;;;;20.63;8.90;;;-2.30;99.90;;;;;;5073365;28;20080;-85
2021/01/10 00:09:27;;;;;;;19.07;7.70;;;-2.40;99.90;;;;;;5074084;28;20545;-84
2021/01/10 00:11:53;;;;;;;21.97;8.57;;;-2.40;99.90;;;;;;5073119;28;20064;-85
2021/01/10 00:14:19;;;;;;;20.13;8.93;;;;;;;;;;5071877;28;20052;-83
2021/01/10 00:16:46;;;;;;;22.80;9.97;;;-2.40;99.90;;;;;;5054811;28;20414;-85
2021/01/10 00:19:11;;;;;;;15.60;6.53;;;-2.40;99.90;;;;;;5071400;28;20036;-84
2021/01/10 00:21:37;;;;;;;19.20;9.23;;;-2.40;99.90;;;;;;5070518;28;20181;-85
2021/01/10 00:24:05;;;;;;;23.77;10.33;;;-2.40;99.90;;;;;;5072379;28;20031;-85
2021/01/10 00:26:37;;;;;;;23.40;9.93;;;-2.40;99.90;;;;;;5068930;28;20033;-84
2021/01/10 00:29:07;;;;;;;26.93;11.80;;;-2.40;99.90;;;;;;5080777;28;20115;-87
2021/01/10 00:31:34;;;;;;;21.60;9.30;;;-2.40;99.90;;;;;;5071669;28;20027;-85
2021/01/10 00:34:03;;;;;;;25.03;10.00;;;-2.40;99.90;;;;;;5056758;28;20082;-83
2021/01/10 00:36:36;;;;;;;27.65;9.70;;;-2.40;99.90;;;;;;5070324;28;20024;-85
2021/01/10 00:39:05;;;;;;;27.47;10.43;;;-2.40;99.90;;;;;;5072653;28;20036;-88
2021/01/10 00:41:39;;;;;;;30.77;12.25;;;-2.50;99.90;;;;;;5049946;28;20047;-88
2021/01/10 00:44:05;;;;;;;36.83;14.80;;;-2.60;99.90;;;;;;5063747;28;20029;-85
2021/01/10 00:46:32;;;;;;;36.07;14.97;;;-2.60;99.90;;;;;;5079816;28;20078;-86
2021/01/10 00:48:58;;;;;;;39.57;17.60;;;-2.70;99.90;;;;;;5041227;28;20033;-85
2021/01/10 00:51:24;;;;;;;38.90;15.23;;;-2.80;99.90;;;;;;5074343;28;20036;-85
2021/01/10 00:53:50;;;;;;;39.60;17.47;;;-2.80;99.90;;;;;;5067467;28;20040;-83
2021/01/10 00:56:16;;;;;;;36.73;16.90;;;-2.80;99.90;;;;;;5073660;28;20051;-84
2021/01/10 00:58:41;;;;;;;41.13;16.60;;;-2.80;99.90;;;;;;5063701;28;20028;-84
2021/01/10 01:01:07;;;;;;;39.10;15.43;;;-2.90;99.90;;;;;;5070788;28;20032;-85
2021/01/10 01:03:33;;;;;;;37.27;17.03;;;-2.90;99.90;;;;;;5075030;28;20052;-86
2021/01/10 01:05:58;;;;;;;41.53;17.53;;;-2.90;99.90;;;;;;5076054;28;20434;-86
2021/01/10 01:08:24;;;;;;;42.30;17.40;;;-2.90;99.90;;;;;;5073607;28;20028;-86
2021/01/10 01:10:51;;;;;;;39.17;16.07;;;-2.90;99.90;;;;;;5064344;28;20045;-85
2021/01/10 01:13:17;;;;;;;36.80;14.47;;;-2.90;99.90;;;;;;5052445;28;20416;-84
2021/01/10 01:15:43;;;;;;;38.23;14.67;;;-2.90;99.90;;;;;;5072883;28;20259;-85
2021/01/10 01:18:10;;;;;;;46.03;18.87;;;-2.90;99.90;;;;;;5093109;28;20048;-86
2021/01/10 01:20:35;;;;;;;35.07;14.17;;;-3.00;99.90;;;;;;5077308;28;20098;-85
2021/01/10 01:23:02;;;;;;;43.87;18.63;;;-3.00;99.90;;;;;;5073638;28;20025;-84
2021/01/10 01:25:28;;;;;;;37.80;17.00;;;-3.00;99.90;;;;;;5073944;28;20028;-86
2021/01/10 01:27:53;;;;;;;39.60;16.87;;;-3.10;99.90;;;;;;5074134;28;20032;-85
2021/01/10 01:30:19;;;;;;;46.23;19.43;;;-3.00;99.90;;;;;;5089991;28;20024;-84
2021/01/10 01:32:45;;;;;;;36.70;14.73;;;-3.10;99.90;;;;;;5086764;28;20039;-81
2021/01/10 01:35:11;;;;;;;39.37;17.50;;;-3.10;99.90;;;;;;5091740;28;20108;-83
2021/01/10 01:37:36;;;;;;;45.97;19.03;;;-3.00;99.90;;;;;;5071336;28;20538;-84
2021/01/10 01:40:06;;;;;;;45.07;19.77;;;-3.10;99.90;;;;;;5072520;28;20028;-83
2021/01/10 01:42:31;;;;;;;44.08;19.40;;;-3.10;99.90;;;;;;5068705;28;20467;-83
2021/01/10 01:44:57;;;;;;;47.53;19.10;;;-3.20;99.90;;;;;;5069233;28;20063;-84
2021/01/10 01:47:23;;;;;;;43.10;18.53;;;-3.10;99.90;;;;;;5065770;28;20116;-83
2021/01/10 01:49:49;;;;;;;48.30;20.33;;;-3.20;99.90;;;;;;5061322;28;20319;-85
2021/01/10 01:52:15;;;;;;;44.67;19.50;;;-3.20;99.90;;;;;;5070616;28;20119;-84
2021/01/10 01:54:42;;;;;;;48.33;21.03;;;-3.20;99.90;;;;;;5070297;28;20039;-84
2021/01/10 01:57:07;;;;;;;45.73;19.37;;;-3.30;99.90;;;;;;5064399;28;20025;-84
2021/01/10 01:59:33;;;;;;;44.40;18.17;;;-3.30;99.90;;;;;;5051630;28;20044;-84
2021/01/10 02:01:59;;;;;;;45.67;19.00;;;-3.30;99.90;;;;;;5048707;28;20048;-84
2021/01/10 02:04:34;;;;;;;45.30;20.70;;;-3.30;99.90;;;;;;5066195;28;20533;-84
2021/01/10 02:07:28;;;;;;;41.23;18.53;;;-3.40;99.90;;;;;;5058232;28;20024;-83
2021/01/10 02:10:06;;;;;;;45.13;17.80;;;-3.40;99.90;;;;;;5074002;28;20036;-84
2021/01/10 02:12:37;;;;;;;45.10;19.07;;;-3.50;99.90;;;;;;5076907;28;20486;-86
2021/01/10 02:15:13;;;;;;;45.50;18.83;;;-3.50;99.90;;;;;;5074929;28;20309;-84
2021/01/10 02:17:45;;;;;;;43.70;18.93;;;-3.50;99.90;;;;;;5068402;28;20103;-85
2021/01/10 02:20:14;;;;;;;42.97;17.87;;;-3.60;99.90;;;;;;5072610;28;20054;-88
2021/01/10 02:22:49;;;;;;;47.85;19.90;;;-3.70;99.90;;;;;;5037781;28;20053;-86
2021/01/10 02:25:15;;;;;;;48.97;20.80;;;-3.70;99.90;;;;;;5019155;28;20045;-84
2021/01/10 02:27:42;;;;;;;44.73;19.50;;;-3.80;99.90;;;;;;5031931;28;20113;-86
2021/01/10 02:30:10;;;;;;;45.20;19.70;;;-3.90;99.90;;;;;;5039162;28;20025;-86
2021/01/10 02:32:37;;;;;;;46.13;18.77;;;;;;;;;;5053184;28;20393;-86
2021/01/10 02:35:05;;;;;;;47.57;19.53;;;;;;;;;;5050451;28;20068;-84
2021/01/10 02:37:50;;;;;;;45.80;19.10;;;;;;;;;;5055994;28;20013;-86
2021/01/10 02:40:18;;;;;;;49.13;18.67;;;;;;;;;;5035341;28;20861;-84
2021/01/10 02:42:49;;;;;;;45.63;18.88;;;;;;;;;;5019234;28;20022;-83
2021/01/10 02:45:17;;;;;;;45.13;18.60;;;;;;;;;;5040014;28;20024;-86
2021/01/10 02:47:43;;;;;;;46.30;19.10;;;;;;;;;;5053789;28;20029;-83
2021/01/10 02:50:10;;;;;;;47.33;20.00;;;;;;;;;;5042686;28;20025;-85
2021/01/10 02:52:36;;;;;;;47.87;19.50;;;;;;;;;;5018290;28;20510;-84
2021/01/10 02:55:03;;;;;;;44.33;18.57;;;;;;;;;;5040750;28;20029;-85
2021/01/10 02:57:38;;;;;;;48.23;19.33;;;;;;;;;;5048298;28;20036;-84
2021/01/10 03:00:08;;;;;;;47.13;19.10;;;;;;;;;;5048559;28;20034;-83
2021/01/10 03:02:36;;;;;;;53.80;20.73;;;;;;;;;;5049892;28;20022;-84
2021/01/10 03:05:03;;;;;;;53.50;21.93;;;;;;;;;;5054417;28;20109;-85
2021/01/10 03:07:30;;;;;;;54.20;20.87;;;;;;;;;;5049365;28;20116;-84
2021/01/10 03:09:56;;;;;;;50.40;19.90;;;;;;;;;;5069620;28;20048;-85
2021/01/10 03:12:27;;;;;;;46.33;19.20;;;;;;;;;;5052101;28;20033;-86
2021/01/10 03:14:53;;;;;;;50.10;18.77;;;;;;;;;;5045327;28;20021;-86
2021/01/10 03:17:43;;;;;;;51.83;19.87;;;;;;;;;;5036714;28;20033;-87
2021/01/10 03:20:09;;;;;;;;;;;;;;;;;;4961537;28;20038;-85
2021/01/10 03:22:36;;;;;;;51.30;19.90;;;;;;;;;;4996115;28;19976;-86
2021/01/10 03:25:04;;;;;;;56.23;20.13;;;;;;;;;;4991088;28;20030;-84
2021/01/10 03:27:30;;;;;;;54.97;20.83;;;;;;;;;;5012106;28;20105;-84
2021/01/10 03:29:56;;;;;;;58.13;21.33;;;;;;;;;;4978595;28;20870;-85
2021/01/10 03:32:24;;;;;;;54.23;20.83;;;;;;;;;;4977224;28;20049;-84
2021/01/10 03:34:50;;;;;;;55.87;20.23;;;;;;;;;;4967195;28;20046;-83
2021/01/10 03:37:16;;;;;;;57.13;21.47;;;;;;;;;;4991146;28;20043;-84
2021/01/10 03:39:42;;;;;;;51.30;20.30;;;;;;;;;;5001315;28;20069;-83
2021/01/10 03:42:09;;;;;;;55.03;20.43;;;;;;;;;;4996319;28;20027;-86
2021/01/10 03:44:36;;;;;;;60.10;21.23;;;-5.00;99.90;;;;;;5001375;28;20053;-84
2021/01/10 03:47:02;;;;;;;58.97;21.30;;;-5.10;99.90;;;;;;4992826;28;20027;-85
2021/01/10 03:49:28;;;;;;;57.83;20.77;;;-5.20;99.90;;;;;;4993352;28;20031;-83
2021/01/10 03:51:55;;;;;;;59.73;22.13;;;-5.20;99.90;;;;;;4975842;28;20512;-83
2021/01/10 03:54:22;;;;;;;55.53;21.67;;;-5.20;99.90;;;;;;5007730;28;20030;-85
2021/01/10 03:56:48;;;;;;;55.13;20.60;;;-5.20;99.90;;;;;;5026141;28;20064;-83
2021/01/10 03:59:14;;;;;;;58.03;20.20;;;-5.20;99.90;;;;;;5053058;28;20075;-82
2021/01/10 04:01:41;;;;;;;52.37;19.73;;;-5.20;99.90;;;;;;5052673;28;20064;-83
2021/01/10 04:04:06;;;;;;;56.23;20.90;;;-5.30;99.90;;;;;;5034572;28;20033;-84
2021/01/10 04:06:32;;;;;;;58.10;20.73;;;-5.30;99.90;;;;;;5035328;28;20035;-84
2021/01/10 04:08:59;;;;;;;56.70;20.37;;;-5.30;99.90;;;;;;5038478;28;20428;-83
2021/01/10 04:11:25;;;;;;;52.87;20.43;;;-5.40;99.90;;;;;;5037552;28;20040;-85
2021/01/10 04:13:50;;;;;;;55.63;19.93;;;-5.40;99.90;;;;;;5032980;28;20121;-84
2021/01/10 04:16:17;;;;;;;52.80;20.47;;;-5.40;99.90;;;;;;5032696;28;20034;-84
2021/01/10 04:18:42;;;;;;;55.77;21.17;;;-5.40;99.90;;;;;;5030170;28;20029;-84
2021/01/10 04:21:08;;;;;;;54.47;19.63;;;-5.50;99.90;;;;;;5052593;28;20472;-85
2021/01/10 04:23:34;;;;;;;54.23;19.93;;;-5.60;99.90;;;;;;5054125;28;20040;-83
2021/01/10 04:26:02;;;;;;;55.53;20.53;;;-5.60;99.90;;;;;;5054214;28;20088;-84
2021/01/10 04:28:28;;;;;;;52.73;19.60;;;-5.60;99.90;;;;;;5053464;28;20021;-84
2021/01/10 04:30:53;;;;;;;54.20;19.37;;;-5.60;99.90;;;;;;5053466;28;20054;-84
2021/01/10 04:33:19;;;;;;;52.47;19.30;;;-5.60;99.90;;;;;;5054005;28;20033;-86
2021/01/10 04:35:45;;;;;;;48.67;18.27;;;-5.60;99.90;;;;;;5053353;28;20021;-86
2021/01/10 04:38:11;;;;;;;49.13;18.30;;;-5.60;99.90;;;;;;5053542;28;20118;-85
2021/01/10 04:40:38;;;;;;;50.53;20.33;;;-5.70;99.90;;;;;;5054619;28;20029;-86
2021/01/10 04:43:04;;;;;;;50.13;18.93;;;-5.60;99.90;;;;;;5052798;28;20086;-85
2021/01/10 04:45:30;;;;;;;47.27;18.63;;;-5.60;99.90;;;;;;5087705;28;20005;-85
2021/01/10 04:47:56;;;;;;;48.27;18.90;;;-5.60;99.90;;;;;;5068287;28;20055;-86
2021/01/10 04:50:23;;;;;;;57.53;20.43;;;-5.70;99.90;;;;;;5036852;28;20033;-86
2021/01/10 04:52:52;;;;;;;46.73;18.30;;;-5.70;99.90;;;;;;5060214;28;20056;-83
2021/01/10 04:55:23;;;;;;;51.15;18.38;;;-5.80;99.90;;;;;;5051651;28;20029;-83
2021/01/10 04:57:50;;;;;;;49.93;18.40;;;-5.80;99.90;;;;;;5051834;28;20037;-82
2021/01/10 05:00:17;;;;;;;51.63;18.40;;;-5.90;99.90;;;;;;5061592;28;20035;-84
2021/01/10 05:02:50;;;;;;;50.90;19.67;;;-5.90;99.90;;;;;;5067788;28;20074;-83
2021/01/10 05:05:17;;;;;;;55.53;19.33;;;-5.90;99.90;;;;;;5051439;28;20425;-85
2021/01/10 05:07:43;;;;;;;47.53;18.37;;;-5.80;99.90;;;;;;5047401;28;20111;-84
2021/01/10 05:10:09;;;;;;;53.83;19.70;;;-5.80;99.90;;;;;;5051680;28;20198;-85
2021/01/10 05:12:35;;;;;;;53.40;20.33;;;-5.80;99.90;;;;;;5052272;28;20074;-82
2021/01/10 05:15:02;;;;;;;47.90;18.80;;;-5.80;99.90;;;;;;5052787;28;20484;-83
2021/01/10 05:17:33;;;;;;;59.13;21.10;;;-5.80;99.90;;;;;;5064268;28;20492;-84
2021/01/10 05:19:59;;;;;;;59.27;21.87;;;-5.70;99.90;;;;;;5049533;28;20029;-83
2021/01/10 05:22:25;;;;;;;59.57;20.50;;;-5.70;99.90;;;;;;5066249;28;20091;-83
2021/01/10 05:24:50;;;;;;;53.73;19.53;;;-5.70;99.90;;;;;;5051265;28;20056;-84
2021/01/10 05:27:16;;;;;;;50.53;20.07;;;-5.70;99.90;;;;;;5052055;28;20082;-83
2021/01/10 05:29:43;;;;;;;51.77;19.50;;;-5.70;99.90;;;;;;5050928;28;20044;-83
2021/01/10 05:32:10;;;;;;;51.67;18.70;;;-5.80;99.90;;;;;;5065319;28;20094;-84
2021/01/10 05:34:35;;;;;;;52.77;19.53;;;-5.80;99.90;;;;;;5071638;28;20019;-83
2021/01/10 05:37:19;;;;;;;50.50;19.33;;;-5.90;99.90;;;;;;5083159;28;20120;-83
2021/01/10 05:39:45;;;;;;;47.53;17.53;;;-5.90;99.90;;;;;;5056480;28;20017;-85
2021/01/10 05:42:12;;;;;;;48.63;17.97;;;-5.80;99.90;;;;;;5055838;28;20104;-84
2021/01/10 05:44:43;;;;;;;49.97;18.20;;;-5.70;99.90;;;;;;5057095;28;20025;-83
2021/01/10 05:47:14;;;;;;;50.67;18.83;;;-5.70;99.90;;;;;;5057403;28;20025;-83
2021/01/10 05:49:50;;;;;;;46.50;17.93;;;-5.70;99.90;;;;;;5068077;28;20025;-84
2021/01/10 05:52:18;;;;;;;47.73;17.93;;;-5.80;99.90;;;;;;5074400;28;20029;-83
2021/01/10 05:54:47;;;;;;;48.50;18.27;;;-5.80;99.90;;;;;;5059701;28;20437;-82
2021/01/10 05:57:18;;;;;;;48.60;19.97;;;-6.00;99.90;;;;;;5071905;28;20021;-85
2021/01/10 05:59:48;;;;;;;44.60;16.70;;;-6.10;99.90;;;;;;5054834;28;20044;-82
2021/01/10 06:02:26;;;;;;;47.90;19.00;;;-6.10;99.90;;;;;;5054235;28;20040;-82
2021/01/10 06:04:52;;;;;;;44.13;17.80;;;-6.10;99.90;;;;;;5080462;28;20068;-83
2021/01/10 06:07:30;;;;;;;47.87;17.33;;;-6.10;99.90;;;;;;5077423;28;20042;-83
2021/01/10 06:09:56;;;;;;;50.43;17.83;;;-6.20;99.90;;;;;;5094190;28;20025;-81
2021/01/10 06:12:23;;;;;;;51.30;18.27;;;-6.20;99.90;;;;;;5065048;28;20333;-83
2021/01/10 06:15:08;;;;;;;47.37;17.63;;;-6.30;99.90;;;;;;5055671;28;20400;-83
2021/01/10 06:17:49;;;;;;;52.77;18.03;;;-6.40;99.90;;;;;;5053449;28;20021;-82
2021/01/10 06:20:28;;;;;;;69.10;19.77;;;-6.50;99.90;;;;;;5049179;28;20021;-83
2021/01/10 06:22:59;;;;;;;82.20;20.25;;;-6.50;99.90;;;;;;5054787;28;20492;-84
2021/01/10 06:25:27;;;;;;;61.10;18.83;;;-6.50;99.90;;;;;;5070436;28;20025;-82
2021/01/10 06:28:11;;;;;;;56.27;18.47;;;-6.50;99.90;;;;;;5053894;28;20040;-84
2021/01/10 06:30:40;;;;;;;80.60;19.27;;;-6.50;99.90;;;;;;5071108;28;20400;-84
2021/01/10 06:33:16;;;;;;;113.57;21.00;;;-6.50;99.90;;;;;;5054077;28;20037;-81
2021/01/10 06:35:43;;;;;;;88.00;19.50;;;-6.50;99.90;;;;;;5058834;28;20036;-81
2021/01/10 06:38:10;;;;;;;55.20;19.07;;;-6.50;99.90;;;;;;5056903;28;20029;-81
2021/01/10 06:40:39;;;;;;;52.13;19.17;;;-6.50;99.90;;;;;;5068413;28;20079;-83
2021/01/10 06:43:06;;;;;;;55.67;19.00;;;-6.60;99.90;;;;;;5049313;28;20076;-81
2021/01/10 06:45:38;;;;;;;74.47;18.27;;;-6.60;99.90;;;;;;5051466;28;20033;-80
2021/01/10 06:48:05;;;;;;;56.30;18.30;;;-6.60;99.90;;;;;;5066811;28;20041;-80
2021/01/10 06:50:32;;;;;;;51.13;18.17;;;-6.60;99.90;;;;;;5050966;28;20036;-81
2021/01/10 06:53:07;;;;;;;58.83;18.17;;;-6.40;99.90;;;;;;5067199;28;20032;-81
2021/01/10 06:55:34;;;;;;;63.50;18.90;;;-6.20;99.90;;;;;;5057143;28;20037;-84
2021/01/10 06:58:09;;;;;;;63.53;18.37;;;-6.00;99.90;;;;;;5078551;28;20127;-82
2021/01/10 07:00:56;;;;;;;80.47;17.80;;;-6.00;99.90;;;;;;5053772;28;20025;-85
2021/01/10 07:03:23;;;;;;;70.23;17.30;;;-5.90;99.90;;;;;;5054276;28;20112;-82
2021/01/10 07:06:05;;;;;;;70.70;15.07;;;-6.00;99.90;;;;;;5067403;28;20051;-80
2021/01/10 07:08:43;;;;;;;58.23;16.80;;;-6.00;99.90;;;;;;5051561;28;20044;-80
2021/01/10 07:11:21;;;;;;;57.53;16.63;;;-5.90;99.90;;;;;;5068708;28;20079;-82
2021/01/10 07:13:51;;;;;;;63.90;15.80;;;-5.80;99.90;;;;;;5050835;28;20032;-81
2021/01/10 07:16:18;;;;;;;75.67;18.50;;;-5.80;99.90;;;;;;5051463;28;20032;-80
2021/01/10 07:18:54;;;;;;;69.57;18.20;;;-5.80;99.90;;;;;;5047028;28;20032;-80
2021/01/10 07:21:36;;;;;;;69.47;17.30;;;-5.80;99.90;;;;;;5051789;28;20048;-80
2021/01/10 07:24:19;;;;;;;54.80;15.57;;;-5.80;99.90;;;;;;5051858;28;20032;-80
2021/01/10 07:26:50;;;;;;;95.20;18.00;;;-5.70;99.90;;;;;;5046399;28;20104;-80
2021/01/10 07:29:42;;;;;;;63.23;17.57;;;-5.70;99.90;;;;;;5050666;28;20025;-80
2021/01/10 07:32:13;;;;;;;55.13;16.63;;;-5.60;99.90;;;;;;5067221;28;20032;-80
2021/01/10 07:34:44;;;;;;;64.13;17.73;;;-5.70;99.90;;;;;;5064264;28;20029;-80
2021/01/10 07:37:31;;;;;;;69.00;18.23;;;-5.70;99.90;;;;;;5057807;28;20036;-80
2021/01/10 07:40:00;;;;;;;68.20;17.10;;;-5.60;99.90;;;;;;5051344;28;20479;-81
2021/01/10 07:42:29;;;;;;;159.63;21.50;;;-5.40;99.90;;;;;;5051103;28;20025;-80
2021/01/10 07:44:56;;;;;;;112.80;19.13;;;-5.50;99.90;;;;;;5068807;28;20029;-82
2021/01/10 07:47:34;;;;;;;74.00;16.33;;;-5.40;99.90;;;;;;5068337;28;20021;-83
2021/01/10 07:50:02;;;;;;;92.43;17.80;;;-5.30;99.90;;;;;;5053457;28;20178;-83
2021/01/10 07:52:42;;;;;;;82.13;18.87;;;-5.30;99.90;;;;;;5053534;28;20037;-80
2021/01/10 07:55:23;;;;;;;108.30;20.80;;;-5.10;99.90;;;;;;5048047;28;20047;-79
2021/01/10 07:58:01;;;;;;;69.43;19.43;;;-5.00;99.90;;;;;;5052135;28;20032;-81
2021/01/10 08:00:33;;;;;;;70.80;18.07;;;-5.00;99.90;;;;;;5061545;28;20100;-81
2021/01/10 08:03:09;;;;;;;82.23;19.03;;;-4.90;99.90;;;;;;5073466;28;20036;-82
2021/01/10 08:05:35;;;;;;;79.13;21.23;;;-4.90;99.90;;;;;;5069957;28;20033;-80
2021/01/10 08:08:01;;;;;;;80.93;20.40;;;-4.80;99.90;;;;;;5055671;28;20026;-80
2021/01/10 08:10:55;;;;;;;63.90;19.67;;;-4.90;99.90;;;;;;5049369;28;20029;-81
2021/01/10 08:13:46;;;;;;;50.73;16.07;;;-4.90;99.90;;;;;;5050291;28;20033;-79
2021/01/10 08:16:31;;;;;;;73.57;19.73;;;-4.90;99.90;;;;;;5050612;28;20029;-81
2021/01/10 08:19:02;;;;;;;71.40;19.87;;;-4.90;99.90;;;;;;5041481;28;20073;-80
2021/01/10 08:21:29;;;;;;;64.83;19.77;;;-4.80;99.90;;;;;;5032787;28;20048;-81
2021/01/10 08:23:55;;;;;;;63.27;18.63;;;-4.70;99.90;;;;;;5068190;28;20033;-82
2021/01/10 08:26:21;;;;;;;50.10;16.43;;;-4.70;99.90;;;;;;5067546;28;20045;-81
2021/01/10 08:28:50;;;;;;;58.40;21.33;;;-4.60;99.90;;;;;;5071710;28;20047;-81
2021/01/10 08:31:19;;;;;;;56.70;19.52;;;-4.50;99.90;;;;;;5070221;28;20187;-81
2021/01/10 08:33:45;;;;;;;60.13;19.52;;;-4.40;99.90;;;;;;5065977;28;20373;-82
2021/01/10 08:36:12;;;;;;;50.07;17.53;;;-4.30;99.90;;;;;;5071122;28;20084;-82
2021/01/10 08:38:47;;;;;;;61.63;20.17;;;-4.10;99.90;;;;;;5071436;28;20028;-81
2021/01/10 08:41:20;;;;;;;55.00;20.27;;;-4.00;99.90;;;;;;5068604;28;20024;-80
2021/01/10 08:43:50;;;;;;;57.67;19.93;;;-3.90;99.90;;;;;;5069932;28;20236;-80
2021/01/10 08:46:16;;;;;;;47.07;18.33;;;-3.80;99.90;;;;;;5073118;28;20085;-83
2021/01/10 08:48:43;;;;;;;51.40;18.73;;;-3.50;99.90;;;;;;5079683;28;20080;-80
2021/01/10 08:51:10;;;;;;;50.33;18.40;;;-3.50;99.90;;;;;;5062229;28;20365;-81
2021/01/10 08:53:40;;;;;;;48.43;18.47;;;-3.40;99.90;;;;;;5076157;28;20029;-81
2021/01/10 08:56:13;;;;;;;45.50;17.20;;;-3.20;99.90;;;;;;5070996;28;20110;-82
2021/01/10 08:58:43;;;;;;;48.83;18.60;;;-3.30;99.90;;;;;;5070096;28;20483;-80
2021/01/10 09:01:18;;;;;;;48.33;19.77;;;-3.40;99.90;;;;;;5066091;28;20112;-83
2021/01/10 09:04:07;;;;;;;49.53;19.23;;;-3.30;99.90;;;;;;5071470;28;20040;-80
2021/01/10 09:06:38;;;;;;;51.20;19.08;;;-3.30;99.90;;;;;;5054392;28;20036;-86
2021/01/10 09:09:09;;;;;;;54.37;19.70;;;-3.20;99.90;;;;;;5066493;28;20036;-79
2021/01/10 09:11:36;;;;;;;52.23;20.37;;;-3.10;99.90;;;;;;5074056;28;20356;-81
2021/01/10 09:14:06;;;;;;;47.67;18.87;;;-2.90;99.90;;;;;;5070631;28;20040;-84
2021/01/10 09:16:33;;;;;;;;;;;-2.80;99.90;;;;;;5076861;28;20023;-81
2021/01/10 09:19:01;;;;;;;49.73;19.93;;;-2.70;99.90;;;;;;5072269;28;19962;-86
2021/01/10 09:21:27;;;;;;;46.83;18.63;;;-2.70;99.90;;;;;;5069227;28;20121;-87
2021/01/10 09:23:58;;;;;;;48.07;20.10;;;-2.70;99.90;;;;;;5077546;28;20518;-86
2021/01/10 09:26:29;;;;;;;52.43;20.33;;;-2.70;99.90;;;;;;5079661;28;20047;-87
2021/01/10 09:28:56;;;;;;;49.30;19.33;;;-2.70;99.90;;;;;;5076154;28;20103;-84
2021/01/10 09:31:41;;;;;;;46.67;20.20;;;-2.80;99.90;;;;;;5077607;28;20139;-86
2021/01/10 09:34:08;;;;;;;57.27;20.53;;;-2.90;99.90;;;;;;5076284;28;20098;-84
2021/01/10 09:36:34;;;;;;;50.43;20.27;;;-3.20;99.90;;;;;;5079671;28;20059;-84
2021/01/10 09:38:59;;;;;;;55.13;19.77;;;-3.00;99.90;;;;;;5076023;28;20024;-86
2021/01/10 09:41:25;;;;;;;52.33;21.20;;;-2.90;99.90;;;;;;5076925;28;20035;-86
2021/01/10 09:43:56;;;;;;;46.53;20.00;;;-2.80;99.90;;;;;;5078375;28;20048;-84
2021/01/10 09:46:35;;;;;;;49.70;18.67;;;-2.60;99.90;;;;;;5086859;28;20048;-84
2021/01/10 09:49:02;;;;;;;50.80;19.53;;;-2.60;99.90;;;;;;5086119;28;20503;-85
2021/01/10 09:51:38;;;;;;;49.27;18.50;;;-2.70;99.90;;;;;;5058332;28;20072;-85
2021/01/10 09:54:35;;;;;;;43.33;17.63;;;-2.70;99.90;;;;;;5059493;28;20113;-82
2021/01/10 09:57:14;;;;;;;53.23;19.33;;;-3.10;99.90;;;;;;4993503;28;20031;-85
2021/01/10 09:59:44;;;;;;;47.33;19.60;;;-3.30;99.90;;;;;;4996060;28;20038;-85
2021/01/10 10:02:19;;;;;;;55.00;21.50;;;-3.40;99.90;;;;;;4999269;28;20031;-85
2021/01/10 10:04:50;;;;;;;49.30;19.20;;;-3.30;99.90;;;;;;4978201;28;20077;-83
2021/01/10 10:07:36;;;;;;;50.87;19.60;;;-3.40;99.90;;;;;;4977848;28;20109;-83
2021/01/10 10:10:21;;;;;;;45.13;18.77;;;-3.40;99.90;;;;;;4977401;28;20035;-83
2021/01/10 10:12:50;;;;;;;45.30;17.93;;;-3.20;99.90;;;;;;5000054;28;20043;-85
2021/01/10 10:15:16;;;;;;;50.00;20.35;;;-3.30;99.90;;;;;;4996222;28;20054;-86
2021/01/10 10:17:42;;;;;;;48.17;19.13;;;-3.10;99.90;;;;;;4976986;28;20026;-85
2021/01/10 10:20:09;;;;;;;48.90;19.93;;;-3.20;99.90;;;;;;5012034;28;20049;-83
2021/01/10 10:22:36;;;;;;;49.93;20.60;;;-3.00;99.90;;;;;;5015978;28;20098;-83
2021/01/10 10:25:07;;;;;;;46.20;19.73;;;-2.80;99.90;;;;;;5012631;28;20034;-83
2021/01/10 10:27:33;;;;;;;39.97;16.60;;;-2.60;99.90;;;;;;4994714;28;20401;-83
2021/01/10 10:30:00;;;;;;;42.93;18.83;;;-2.60;99.90;;;;;;4991624;28;20069;-82
2021/01/10 10:32:26;;;;;;;46.27;18.60;;;-2.70;99.90;;;;;;4991476;28;20070;-85
2021/01/10 10:34:53;;;;;;;49.63;20.87;;;-2.70;99.90;;;;;;5066431;28;20068;-83
2021/01/10 10:37:20;;;;;;;45.90;19.07;;;-2.70;99.90;;;;;;5076114;28;20032;-84
2021/01/10 10:39:46;;;;;;;50.70;20.40;;;-2.70;99.90;;;;;;5073418;28;20044;-83
2021/01/10 10:42:15;;;;;;;52.97;21.50;;;-2.70;99.90;;;;;;5071101;28;20025;-82
2021/01/10 10:44:42;;;;;;;43.22;19.10;;;-2.70;99.90;;;;;;5079329;28;20017;-86
2021/01/10 10:47:12;;;;;;;42.77;18.40;;;-2.70;99.90;;;;;;5075534;28;20035;-85
2021/01/10 10:49:39;;;;;;;44.90;18.63;;;-2.60;99.90;;;;;;5073749;28;20032;-84
2021/01/10 10:52:09;;;;;;;49.37;20.80;;;-2.50;99.90;;;;;;5071173;28;20017;-77
2021/01/10 10:54:35;;;;;;;49.83;20.17;;;-2.50;99.90;;;;;;5070112;28;20421;-78
2021/01/10 10:57:00;;;;;;;44.97;20.27;;;-2.50;99.90;;;;;;5067581;28;20077;-77
2021/01/10 10:59:26;;;;;;;46.10;20.67;;;-2.50;99.90;;;;;;5066994;28;20107;-76
2021/01/10 11:01:52;;;;;;;50.63;20.83;;;-2.50;99.90;;;;;;5069480;28;20032;-78
2021/01/10 11:04:17;;;;;;;49.07;19.90;;;-2.40;99.90;;;;;;5069969;28;20534;-78
2021/01/10 11:06:43;;;;;;;47.53;20.70;;;-2.20;99.90;;;;;;5069913;28;20077;-77
2021/01/10 11:09:10;;;;;;;47.63;21.03;;;-2.20;99.90;;;;;;5071112;28;20024;-77
2021/01/10 11:11:43;;;;;;;42.10;18.93;;;-2.10;99.90;;;;;;5069312;28;20056;-77
2021/01/10 11:14:10;;;;;;;46.97;20.67;;;-2.00;99.90;;;;;;5064074;28;20576;-76
2021/01/10 11:16:38;;;;;;;51.63;21.63;;;-2.10;99.90;;;;;;5069532;28;20020;-77
2021/01/10 11:19:05;;;;;;;45.27;20.47;;;-2.10;99.90;;;;;;5070246;28;20082;-77
2021/01/10 11:21:37;;;;;;;48.13;20.50;;;-1.90;99.90;;;;;;5073155;28;20052;-78
2021/01/10 11:24:03;;;;;;;52.50;21.87;;;-1.80;99.90;;;;;;5069862;28;20126;-77
2021/01/10 11:26:31;;;;;;;45.67;21.23;;;-2.00;99.90;;;;;;5063565;28;20024;-78
2021/01/10 11:28:57;;;;;;;46.23;20.50;;;-1.80;99.90;;;;;;5051831;28;20036;-80
2021/01/10 11:31:25;;;;;;;51.13;22.27;;;-1.60;99.90;;;;;;5069821;28;20050;-76
2021/01/10 11:33:50;;;;;;;45.87;20.10;;;-1.60;99.90;;;;;;5068126;28;20391;-77
2021/01/10 11:36:16;;;;;;;42.43;17.87;;;-1.50;99.90;;;;;;5067008;28;20041;-77
2021/01/10 11:38:42;;;;;;;43.57;17.73;;;-1.60;99.90;;;;;;5051278;28;20029;-77
2021/01/10 11:41:12;;;;;;;44.87;19.90;;;-1.70;99.90;;;;;;5068749;28;20028;-76
2021/01/10 11:43:39;;;;;;;50.13;19.50;;;-1.90;99.90;;;;;;5069108;28;20048;-76
2021/01/10 11:46:06;;;;;;;44.50;17.40;;;-1.80;99.90;;;;;;5069243;28;20029;-78
2021/01/10 11:48:36;;;;;;;36.67;15.27;;;-2.00;99.90;;;;;;5068068;28;20028;-76
2021/01/10 11:51:04;;;;;;;46.77;17.77;;;-1.90;99.90;;;;;;5067481;28;20032;-77
2021/01/10 11:53:29;;;;;;;26.90;8.33;;;-1.90;99.90;;;;;;5069195;28;20120;-75
2021/01/10 11:55:55;;;;;;;44.63;17.80;;;-1.90;99.90;;;;;;5068363;28;20159;-77
2021/01/10 11:58:20;;;;;;;34.37;14.67;;;-1.90;99.90;;;;;;5067508;28;20029;-77
2021/01/10 12:00:50;;;;;;;26.27;9.53;;;-1.70;99.90;;;;;;5068883;28;20115;-78
2021/01/10 12:03:16;;;;;;;28.80;10.32;;;-1.90;99.90;;;;;;5051346;28;20047;-77
2021/01/10 12:05:42;;;;;;;28.57;11.10;;;-1.90;99.90;;;;;;5067657;28;20028;-77
2021/01/10 12:08:08;;;;;;;33.03;10.80;;;-2.10;99.90;;;;;;5065642;28;20501;-77
2021/01/10 12:10:34;;;;;;;33.83;13.90;;;-2.10;99.90;;;;;;5069046;28;20104;-78
2021/01/10 12:13:02;;;;;;;27.53;10.03;;;-2.00;99.90;;;;;;5068567;28;20048;-77
2021/01/10 12:15:28;;;;;;;10.97;5.40;;;-2.30;99.90;;;;;;5068051;28;20074;-77
2021/01/10 12:17:54;;;;;;;29.30;10.53;;;-2.20;99.90;;;;;;5068809;28;20487;-78
2021/01/10 12:20:20;;;;;;;19.73;8.50;;;-2.20;99.90;;;;;;5069046;28;20034;-77
2021/01/10 12:22:45;;;;;;;26.43;8.77;;;-2.20;99.90;;;;;;5070194;28;21036;-78
2021/01/10 12:25:11;;;;;;;34.57;14.07;;;-2.30;99.90;;;;;;5064906;28;20136;-77
2021/01/10 12:27:37;;;;;;;18.10;9.00;;;-2.20;99.90;;;;;;5074126;28;20072;-81
2021/01/10 12:30:05;;;;;;;34.63;13.70;;;-2.10;99.90;;;;;;5069524;28;20074;-78
2021/01/10 12:32:36;;;;;;;28.87;11.60;;;-2.20;99.90;;;;;;5068870;28;20357;-79
2021/01/10 12:35:07;;;;;;;23.03;7.90;;;-2.20;99.90;;;;;;5066498;28;20040;-78
2021/01/10 12:37:34;;;;;;;36.70;14.83;;;-2.20;99.90;;;;;;5071118;28;20032;-79
2021/01/10 12:40:00;;;;;;;40.93;16.47;;;-2.20;99.90;;;;;;5059718;28;20523;-80
2021/01/10 12:42:26;;;;;;;29.60;12.90;;;-2.20;99.90;;;;;;5081250;28;20036;-79
2021/01/10 12:44:52;;;;;;;29.03;10.43;;;-2.30;99.90;;;;;;5076248;28;20052;-79
2021/01/10 12:47:18;;;;;;;32.33;12.37;;;-2.30;99.90;;;;;;5075650;28;20502;-80
2021/01/10 12:49:44;;;;;;;19.37;7.20;;;-2.30;99.90;;;;;;5067414;28;20033;-78